Cf Diamond — VRIL5 — position and weather

sailwx.info

Track history (hours):
 
Tides and Currents Weather Stations Pressure Air Temp Water Temp Dewpoint Dewpoint Depression Visibility Wind Speed Wind Dir Waves Ship Positions

Cf Diamond

Last reported at 2018-May-07 01:34 UTC. Time now 2018-May-20 14:08 UTC.
Position S 32°38' E 029°51'.
Warning: this ship's position is 13 days out of date.

Length 225 m; draft 7.3 m.

Type: Cargo ship. MMSI: 477213100.

Date/timePositionNaut miles runAvg speedWind from/ knotsBaromVisibWave heightAir tempDewpointWater temp
2018-May-07 01:34S 32°38' E 029°51'113.2
2018-May-07 01:30S 32°37' E 029°52'713.4
2018-May-07 01:00S 32°34' E 029°59'713.7
2018-May-07 00:30S 32°31' E 030°07'713.7
2018-May-07 00:00S 32°29' E 030°14'713.7
2018-May-06 23:30S 32°26' E 030°21'713.6
2018-May-06 23:00S 32°23' E 030°28'713.7
2018-May-06 22:31S 32°19' E 030°36'713.6
2018-May-06 22:00S 32°16' E 030°43'713.6
2018-May-06 21:31S 32°13' E 030°50'713.4
2018-May-06 21:00S 32°10' E 030°57'713.3
2018-May-06 20:30S 32°08' E 031°04'713.2
2018-May-06 20:00S 32°05' E 031°11'713.3
2018-May-06 19:30S 32°02' E 031°18'713.5
2018-May-06 19:00S 31°59' E 031°26'713.5
2018-May-06 18:30S 31°56' E 031°33'713.3
2018-May-06 18:01S 31°53' E 031°40'713.2
2018-May-06 17:31S 31°50' E 031°47'713.4
2018-May-06 17:00S 31°48' E 031°54'713.5
2018-May-06 16:30S 31°45' E 032°01'713.3
2018-May-06 16:00S 31°42' E 032°08'713.2
2018-May-06 15:30S 31°39' E 032°15'713.2
2018-May-06 15:00S 31°36' E 032°22'713.2
2018-May-06 14:30S 31°33' E 032°29'913.0
2018-May-06 13:48S 31°29' E 032°39'412.9
2018-May-06 13:30S 31°27' E 032°43'612.8
2018-May-06 13:00S 31°24' E 032°49'612.0
2018-May-06 12:31S 31°22' E 032°56'712.2
2018-May-06 11:57S 31°19' E 033°03'612.4
2018-May-06 11:30S 31°17' E 033°09'612.2
2018-May-06 11:01S 31°14' E 033°15'712.3
2018-May-06 10:28S 31°11' E 033°22'612.4
2018-May-06 10:00S 31°08' E 033°28'612.3
2018-May-06 09:30S 31°06' E 033°35'612.0
2018-May-06 08:58S 31°03' E 033°41'711.9
2018-May-06 08:25S 31°00' E 033°48'  
Track history (hours):
 
Tides and Currents Weather Stations Pressure Air Temp Water Temp Dewpoint Dewpoint Depression Visibility Wind Speed Wind Dir Waves Ship Positions

Cf Diamond

Last reported at 2018-May-07 01:34 UTC. Time now 2018-May-20 14:08 UTC.
Position S 32°38' E 029°51'.
Warning: this ship's position is 13 days out of date.

Length 225 m; draft 7.3 m.

Type: Cargo ship. MMSI: 477213100.

Date/timePositionNaut miles runAvg speedWind from/ knotsBaromVisibWave heightAir tempDewpointWater temp
2018-May-07 01:34S 32°38' E 029°51'113.2
2018-May-07 01:30S 32°37' E 029°52'713.4
2018-May-07 01:00S 32°34' E 029°59'713.7
2018-May-07 00:30S 32°31' E 030°07'713.7
2018-May-07 00:00S 32°29' E 030°14'713.7
2018-May-06 23:30S 32°26' E 030°21'713.6
2018-May-06 23:00S 32°23' E 030°28'713.7
2018-May-06 22:31S 32°19' E 030°36'713.6
2018-May-06 22:00S 32°16' E 030°43'713.6
2018-May-06 21:31S 32°13' E 030°50'713.4
2018-May-06 21:00S 32°10' E 030°57'713.3
2018-May-06 20:30S 32°08' E 031°04'713.2
2018-May-06 20:00S 32°05' E 031°11'713.3
2018-May-06 19:30S 32°02' E 031°18'713.5
2018-May-06 19:00S 31°59' E 031°26'713.5
2018-May-06 18:30S 31°56' E 031°33'713.3
2018-May-06 18:01S 31°53' E 031°40'713.2
2018-May-06 17:31S 31°50' E 031°47'713.4
2018-May-06 17:00S 31°48' E 031°54'713.5
2018-May-06 16:30S 31°45' E 032°01'713.3
2018-May-06 16:00S 31°42' E 032°08'713.2
2018-May-06 15:30S 31°39' E 032°15'713.2
2018-May-06 15:00S 31°36' E 032°22'713.2
2018-May-06 14:30S 31°33' E 032°29'913.0
2018-May-06 13:48S 31°29' E 032°39'412.9
2018-May-06 13:30S 31°27' E 032°43'612.8
2018-May-06 13:00S 31°24' E 032°49'612.0
2018-May-06 12:31S 31°22' E 032°56'712.2
2018-May-06 11:57S 31°19' E 033°03'612.4
2018-May-06 11:30S 31°17' E 033°09'612.2
2018-May-06 11:01S 31°14' E 033°15'712.3
2018-May-06 10:28S 31°11' E 033°22'612.4
2018-May-06 10:00S 31°08' E 033°28'612.3
2018-May-06 09:30S 31°06' E 033°35'612.0
2018-May-06 08:58S 31°03' E 033°41'711.9
2018-May-06 08:25S 31°00' E 033°48'  

Dump ship's entire track history